Time;durP1;ratioP1;P1;durP2;ratioP2;P2;SDS_P1;SDS_P2;PMS_P1;PMS_P2;Temp;Humidity;BMP_temperature;BMP_pressure;BME280_temperature;BME280_humidity;BME280_pressure;Samples;Min_cycle;Max_cycle;Signal;HPM_P1;HPM_P2
2021/11/25 00:01:43;;;;;;;5.10;3.58;;;14.40;60.20;;;;;;4257326;27;20051;-70
2021/11/25 00:03:47;;;;;;;5.38;4.10;;;14.40;60.40;;;;;;4256921;27;20089;-64
2021/11/25 00:05:50;;;;;;;3.88;3.30;;;14.40;60.30;;;;;;4257138;27;20063;-73
2021/11/25 00:07:53;;;;;;;5.95;3.75;;;14.40;60.30;;;;;;4257192;27;20055;-73
2021/11/25 00:09:56;;;;;;;6.00;4.07;;;14.40;60.20;;;;;;4257052;27;20092;-67
2021/11/25 00:12:01;;;;;;;5.05;3.90;;;14.40;60.20;;;;;;4256790;27;20051;-65
2021/11/25 00:14:04;;;;;;;5.90;4.40;;;14.40;60.20;;;;;;4256450;27;20349;-73
2021/11/25 00:16:07;;;;;;;5.57;3.97;;;14.40;60.30;;;;;;4245780;27;20058;-73
2021/11/25 00:18:13;;;;;;;4.30;3.42;;;14.40;60.40;;;;;;4256863;27;20051;-74
2021/11/25 00:20:17;;;;;;;4.20;3.63;;;14.30;60.30;;;;;;4256653;27;20055;-74
2021/11/25 00:22:20;;;;;;;5.65;4.03;;;14.40;60.40;;;;;;4256830;27;20107;-73
2021/11/25 00:24:23;;;;;;;5.32;3.88;;;14.40;60.40;;;;;;4256883;27;20051;-73
2021/11/25 00:26:27;;;;;;;4.97;3.88;;;14.30;60.30;;;;;;4245479;27;20752;-73
2021/11/25 00:28:32;;;;;;;6.88;4.10;;;14.40;60.40;;;;;;4256761;27;20051;-68
2021/11/25 00:30:35;;;;;;;5.55;3.88;;;14.40;60.40;;;;;;4256458;27;20340;-71
2021/11/25 00:32:40;;;;;;;4.65;4.00;;;14.30;60.30;;;;;;4256655;27;20067;-72
2021/11/25 00:34:43;;;;;;;5.32;3.80;;;14.30;60.40;;;;;;4256891;27;20051;-73
2021/11/25 00:36:46;;;;;;;4.43;3.70;;;14.30;60.40;;;;;;4245523;27;20054;-69
2021/11/25 00:38:49;;;;;;;4.85;3.88;;;14.30;60.30;;;;;;4256803;27;20425;-72
2021/11/25 00:40:52;;;;;;;6.38;3.80;;;14.30;60.40;;;;;;4256430;27;20046;-71
2021/11/25 00:42:55;;;;;;;4.43;3.60;;;14.30;60.40;;;;;;4256674;27;20058;-68
2021/11/25 00:45:00;;;;;;;4.70;3.78;;;14.30;60.40;;;;;;4256499;27;20063;-70
2021/11/25 00:47:03;;;;;;;4.32;3.78;;;14.30;60.40;;;;;;4256088;27;20047;-73
2021/11/25 00:49:07;;;;;;;5.15;3.55;;;14.30;60.40;;;;;;4256479;27;20074;-66
2021/11/25 00:51:10;;;;;;;5.32;3.90;;;14.30;61.00;;;;;;4256333;27;20059;-73
2021/11/25 00:53:15;;;;;;;4.75;3.75;;;14.30;60.40;;;;;;4256320;27;20055;-71
2021/11/25 00:55:18;;;;;;;5.40;3.35;;;14.30;60.50;;;;;;4255948;27;20062;-69
2021/11/25 00:57:21;;;;;;;4.95;4.20;;;14.30;60.50;;;;;;4255379;27;20414;-73
2021/11/25 00:59:24;;;;;;;5.20;3.85;;;14.20;60.40;;;;;;4255704;27;20096;-65
2021/11/25 01:01:29;;;;;;;6.85;4.32;;;14.30;60.40;;;;;;4256041;27;20059;-64
2021/11/25 01:03:32;;;;;;;5.57;3.88;;;14.20;60.40;;;;;;4256121;27;20071;-65
2021/11/25 01:05:36;;;;;;;4.10;3.47;;;14.20;60.40;;;;;;4256114;27;20083;-72
2021/11/25 01:07:39;;;;;;;4.45;3.70;;;14.20;60.50;;;;;;4256023;27;20047;-73
2021/11/25 01:09:42;;;;;;;5.55;4.00;;;14.20;60.50;;;;;;4256193;27;20051;-67
2021/11/25 01:11:45;;;;;;;5.50;4.18;;;14.20;60.40;;;;;;4255971;27;20070;-72
2021/11/25 01:13:48;;;;;;;5.00;3.75;;;14.20;60.40;;;;;;4255621;27;20070;-65
2021/11/25 01:15:52;;;;;;;5.85;3.40;;;14.20;60.40;;;;;;4255836;27;20220;-64
2021/11/25 01:17:57;;;;;;;6.43;4.25;;;14.20;60.40;;;;;;4255972;27;20096;-66
2021/11/25 01:20:00;;;;;;;5.75;3.97;;;14.20;60.50;;;;;;4255769;27;20437;-71
2021/11/25 01:22:03;;;;;;;5.22;3.78;;;14.20;60.40;;;;;;4256167;27;20047;-71
2021/11/25 01:24:07;;;;;;;4.88;3.92;;;14.20;60.40;;;;;;4256433;27;20227;-69
2021/11/25 01:26:10;;;;;;;5.45;4.18;;;14.20;60.40;;;;;;4256141;27;20059;-65
2021/11/25 01:28:13;;;;;;;4.38;3.83;;;14.20;60.40;;;;;;4256017;27;20067;-73
2021/11/25 01:30:17;;;;;;;5.45;4.07;;;14.20;60.50;;;;;;4255842;27;20051;-70
2021/11/25 01:32:20;;;;;;;5.63;4.20;;;14.20;60.50;;;;;;4255443;27;20051;-74
2021/11/25 01:34:25;;;;;;;5.50;4.22;;;14.20;60.50;;;;;;4255864;27;20051;-67
2021/11/25 01:36:28;;;;;;;5.07;3.83;;;14.20;60.50;;;;;;4255472;27;20100;-73
2021/11/25 01:38:31;;;;;;;5.28;3.97;;;14.20;60.50;;;;;;4255788;27;20055;-65
2021/11/25 01:40:36;;;;;;;4.18;3.60;;;14.20;60.50;;;;;;4255843;27;20062;-65
2021/11/25 01:42:40;;;;;;;4.90;3.83;;;14.20;60.50;;;;;;4255587;27;20058;-65
2021/11/25 01:44:43;;;;;;;4.53;3.72;;;14.20;60.50;;;;;;4255473;27;20074;-67
2021/11/25 01:46:46;;;;;;;4.47;3.35;;;14.10;60.50;;;;;;4255509;27;20051;-70
2021/11/25 01:48:51;;;;;;;4.55;3.40;;;14.10;60.40;;;;;;4255126;27;20144;-65
2021/11/25 01:50:55;;;;;;;4.88;3.58;;;14.10;60.40;;;;;;4255525;27;20078;-67
2021/11/25 01:52:59;;;;;;;5.03;3.63;;;14.10;60.40;;;;;;4255210;27;20073;-66
2021/11/25 01:55:03;;;;;;;5.03;3.97;;;14.10;60.40;;;;;;4255634;27;20054;-68
2021/11/25 01:57:06;;;;;;;4.82;3.88;;;14.10;60.40;;;;;;4254991;27;20063;-68
2021/11/25 01:59:09;;;;;;;4.28;3.50;;;14.10;60.40;;;;;;4255280;27;20073;-64
2021/11/25 02:01:14;;;;;;;5.20;3.50;;;14.10;60.40;;;;;;4255254;27;20100;-65
2021/11/25 02:03:18;;;;;;;5.57;3.88;;;14.10;60.40;;;;;;4255370;27;20066;-65
2021/11/25 02:05:21;;;;;;;4.97;3.78;;;14.10;60.40;;;;;;4255412;27;20051;-73
2021/11/25 02:07:26;;;;;;;4.72;3.63;;;14.10;60.40;;;;;;4255243;27;20078;-65
2021/11/25 02:09:29;;;;;;;4.90;3.55;;;14.10;60.40;;;;;;4251883;27;20371;-64
2021/11/25 02:11:32;;;;;;;5.50;3.90;;;14.10;60.40;;;;;;4255447;27;20054;-70
2021/11/25 02:13:35;;;;;;;6.00;3.92;;;14.10;60.40;;;;;;4255121;27;20103;-66
2021/11/25 02:15:38;;;;;;;3.83;3.20;;;14.10;60.30;;;;;;4255435;28;20058;-65
2021/11/25 02:17:42;;;;;;;5.10;3.92;;;14.00;60.30;;;;;;4255323;28;20051;-66
2021/11/25 02:19:49;;;;;;;4.55;3.70;;;14.10;60.40;;;;;;4255033;28;20074;-67
2021/11/25 02:21:54;;;;;;;4.70;3.83;;;14.10;60.40;;;;;;4255057;28;20457;-67
2021/11/25 02:23:57;;;;;;;4.47;3.42;;;14.00;60.30;;;;;;4255164;28;20103;-65
2021/11/25 02:26:01;;;;;;;3.40;2.97;;;14.10;60.40;;;;;;4255247;28;20070;-72
2021/11/25 02:28:05;;;;;;;4.43;3.38;;;14.00;60.30;;;;;;4254975;28;20078;-74
2021/11/25 02:30:13;;;;;;;4.45;3.70;;;14.00;60.30;;;;;;4252152;28;20055;-70
2021/11/25 02:32:28;;;;;;;4.80;3.90;;;14.00;60.30;;;;;;4255116;28;20051;-73
2021/11/25 02:34:31;;;;;;;6.15;3.83;;;14.00;60.30;;;;;;4254666;28;20059;-71
2021/11/25 02:36:34;;;;;;;4.63;3.15;;;14.00;60.40;;;;;;4254998;28;20067;-73
2021/11/25 02:38:39;;;;;;;5.30;3.65;;;14.00;60.30;;;;;;4254806;28;20063;-74
2021/11/25 02:40:44;;;;;;;4.85;3.55;;;14.00;60.30;;;;;;4254853;28;20062;-67
2021/11/25 02:42:50;;;;;;;5.18;3.65;;;14.00;60.30;;;;;;4254895;28;20071;-66
2021/11/25 02:44:53;;;;;;;4.47;3.42;;;14.00;60.30;;;;;;4254811;28;20051;-69
2021/11/25 02:47:00;;;;;;;4.28;3.25;;;14.00;60.30;;;;;;4254858;28;20047;-71
2021/11/25 02:49:03;;;;;;;5.18;3.70;;;14.00;60.30;;;;;;4254861;28;20298;-69
2021/11/25 02:51:07;;;;;;;4.68;3.25;;;14.00;60.30;;;;;;4255004;28;20055;-72
2021/11/25 02:53:10;;;;;;;5.05;3.55;;;14.00;60.30;;;;;;4254863;28;20051;-63
2021/11/25 02:55:17;;;;;;;3.35;3.05;;;14.00;60.30;;;;;;4236580;28;20071;-66
2021/11/25 02:57:20;;;;;;;3.58;3.10;;;14.00;60.30;;;;;;4254646;28;20047;-65
2021/11/25 02:59:23;;;;;;;4.97;3.45;;;14.00;60.20;;;;;;4254565;28;20329;-71
2021/11/25 03:01:29;;;;;;;3.92;3.03;;;14.00;60.20;;;;;;4254829;28;20051;-65
2021/11/25 03:03:32;;;;;;;5.50;3.72;;;14.00;60.30;;;;;;4255192;28;20066;-69
2021/11/25 03:05:37;;;;;;;3.55;3.25;;;14.00;60.30;;;;;;4254729;28;20055;-69
2021/11/25 03:07:40;;;;;;;4.95;3.50;;;14.00;60.30;;;;;;4254914;28;20051;-76
2021/11/25 03:09:43;;;;;;;5.15;3.42;;;14.00;60.20;;;;;;4236758;28;20102;-68
2021/11/25 03:11:49;;;;;;;4.03;3.50;;;13.90;60.20;;;;;;4254645;28;20074;-68
2021/11/25 03:13:54;;;;;;;3.88;3.30;;;13.90;60.20;;;;;;4254616;28;20055;-68
2021/11/25 03:15:57;;;;;;;;;;;13.90;60.30;;;;;;4255483;28;20039;-73
2021/11/25 03:18:00;;;;;;;4.22;3.58;;;13.90;60.20;;;;;;4254856;28;19915;-70
2021/11/25 03:20:05;;;;;;;4.32;3.65;;;13.90;60.30;;;;;;4254574;28;20107;-65
2021/11/25 03:22:08;;;;;;;;;;;13.90;60.30;;;;;;4257579;27;20092;-74
2021/11/25 03:24:12;;;;;;;6.25;3.78;;;13.90;60.20;;;;;;4258012;27;19922;-65
2021/11/25 03:26:17;;;;;;;4.78;3.70;;;13.90;60.30;;;;;;4257927;27;20209;-74
2021/11/25 03:28:21;;;;;;;5.13;4.18;;;13.90;60.30;;;;;;4257617;27;20111;-76
2021/11/25 03:30:24;;;;;;;4.63;3.50;;;13.90;60.30;;;;;;4257853;27;20067;-72
2021/11/25 03:32:28;;;;;;;4.40;3.75;;;13.90;60.30;;;;;;4257753;27;20066;-67
2021/11/25 03:34:31;;;;;;;4.55;3.60;;;13.90;60.30;;;;;;4257648;27;20039;-65
2021/11/25 03:36:34;;;;;;;4.63;3.63;;;13.90;60.90;;;;;;4257637;27;20358;-75
2021/11/25 03:38:38;;;;;;;4.75;3.70;;;13.90;60.30;;;;;;4259825;27;20092;-75
2021/11/25 03:40:41;;;;;;;4.72;3.47;;;13.90;60.30;;;;;;4259588;27;20047;-72
2021/11/25 03:42:44;;;;;;;4.82;3.50;;;13.90;60.30;;;;;;4260354;27;20047;-73
2021/11/25 03:44:50;;;;;;;5.65;3.78;;;13.90;60.30;;;;;;4260515;27;20105;-74
2021/11/25 03:46:54;;;;;;;4.43;4.03;;;13.90;60.30;;;;;;4260477;27;20104;-73
2021/11/25 03:48:57;;;;;;;5.18;4.13;;;13.90;60.30;;;;;;4260107;27;20051;-79
2021/11/25 03:51:03;;;;;;;5.82;4.10;;;13.80;60.20;;;;;;4259654;27;20055;-75
2021/11/25 03:53:08;;;;;;;5.30;4.10;;;13.90;60.30;;;;;;4257292;27;20051;-72
2021/11/25 03:55:14;;;;;;;5.60;4.28;;;13.80;60.30;;;;;;4257542;27;20075;-72
2021/11/25 03:57:17;;;;;;;5.50;4.43;;;13.80;60.30;;;;;;4257164;27;20058;-67
2021/11/25 03:59:20;;;;;;;6.07;4.43;;;13.80;60.30;;;;;;4257348;27;20051;-74
2021/11/25 04:01:24;;;;;;;5.50;4.13;;;13.80;60.30;;;;;;4256777;27;20078;-68
2021/11/25 04:03:28;;;;;;;5.93;4.68;;;13.80;60.40;;;;;;4257151;27;20421;-74
2021/11/25 04:05:32;;;;;;;6.72;5.20;;;13.80;60.30;;;;;;4257074;27;20155;-68
2021/11/25 04:07:36;;;;;;;7.53;4.90;;;13.80;60.40;;;;;;4257137;27;20053;-69
2021/11/25 04:09:39;;;;;;;8.05;5.28;;;13.80;60.40;;;;;;4257466;27;20055;-65
2021/11/25 04:11:42;;;;;;;7.80;5.57;;;13.80;60.40;;;;;;4257383;27;20047;-68
2021/11/25 04:13:45;;;;;;;6.93;5.18;;;13.80;60.40;;;;;;4257127;27;20051;-68
2021/11/25 04:15:48;;;;;;;7.72;5.78;;;13.80;60.50;;;;;;4257405;27;20097;-73
2021/11/25 04:17:53;;;;;;;8.50;5.80;;;13.80;60.50;;;;;;4255360;27;20264;-69
2021/11/25 04:19:56;;;;;;;8.10;5.90;;;13.80;60.50;;;;;;4257068;27;20047;-72
2021/11/25 04:22:01;;;;;;;9.48;6.15;;;13.80;60.50;;;;;;4256974;27;20071;-71
2021/11/25 04:24:04;;;;;;;10.13;6.45;;;13.80;60.50;;;;;;4257052;27;20058;-66
2021/11/25 04:26:07;;;;;;;9.70;6.85;;;13.80;60.60;;;;;;4256838;27;20084;-67
2021/11/25 04:28:10;;;;;;;9.05;6.75;;;13.80;60.60;;;;;;4256654;27;20251;-67
2021/11/25 04:37:06;;;;;;;10.50;7.30;;;13.70;60.60;;;;;;4240004;28;20108;-68
2021/11/25 04:39:09;;;;;;;10.45;7.70;;;13.80;60.70;;;;;;4256402;27;20051;-73
2021/11/25 04:41:12;;;;;;;10.75;7.80;;;13.70;60.70;;;;;;4256907;27;20051;-64
2021/11/25 04:43:17;;;;;;;13.70;8.80;;;13.70;60.80;;;;;;4256378;27;20343;-73
2021/11/25 04:45:20;;;;;;;;;;;13.70;60.80;;;;;;4256901;27;20051;-63
2021/11/25 04:47:23;;;;;;;13.98;9.52;;;13.70;60.80;;;;;;4256132;27;19938;-65
2021/11/25 04:49:26;;;;;;;12.65;9.50;;;13.70;60.90;;;;;;4256288;27;20051;-72
2021/11/25 04:51:32;;;;;;;13.20;9.10;;;13.70;60.90;;;;;;4256377;27;20235;-71
2021/11/25 04:53:35;;;;;;;16.10;10.52;;;13.70;60.90;;;;;;4256283;27;20054;-66
2021/11/25 04:55:39;;;;;;;13.98;9.35;;;13.70;60.90;;;;;;4256349;27;20434;-74
2021/11/25 04:57:42;;;;;;;14.45;10.10;;;13.70;60.90;;;;;;4256276;27;20078;-73
2021/11/25 04:59:45;;;;;;;15.43;9.85;;;13.70;60.90;;;;;;4256118;27;20071;-71
2021/11/25 05:01:48;;;;;;;14.18;9.48;;;13.70;60.90;;;;;;4256080;27;20055;-70
2021/11/25 05:03:51;;;;;;;14.48;10.32;;;13.70;60.90;;;;;;4256130;27;20047;-69
2021/11/25 05:05:54;;;;;;;17.27;11.20;;;13.60;60.90;;;;;;4256019;27;20092;-72
2021/11/25 05:07:59;;;;;;;17.05;11.68;;;13.70;61.00;;;;;;4256294;27;20090;-73
2021/11/25 05:10:03;;;;;;;18.65;11.32;;;13.70;61.00;;;;;;4255976;27;20054;-73
2021/11/25 05:12:07;;;;;;;17.33;11.43;;;13.70;61.10;;;;;;4255663;27;20096;-66
2021/11/25 05:14:10;;;;;;;19.73;12.13;;;13.70;61.10;;;;;;4255762;27;20077;-65
2021/11/25 05:16:15;;;;;;;19.40;12.07;;;13.60;61.00;;;;;;4238109;28;20051;-65
2021/11/25 05:18:18;;;;;;;18.50;12.18;;;13.60;61.00;;;;;;4254436;27;20100;-66
2021/11/25 05:20:22;;;;;;;18.92;12.23;;;13.70;61.10;;;;;;4255564;27;20106;-67
2021/11/25 05:22:25;;;;;;;20.35;13.77;;;13.60;61.00;;;;;;4255676;27;20114;-69
2021/11/25 05:24:29;;;;;;;17.65;12.00;;;13.60;61.00;;;;;;4255425;27;20340;-64
2021/11/25 05:26:33;;;;;;;20.90;12.68;;;13.60;61.10;;;;;;4255853;27;20302;-67
2021/11/25 05:28:36;;;;;;;19.92;13.70;;;13.60;61.00;;;;;;4256028;27;20066;-68
2021/11/25 05:30:39;;;;;;;18.00;12.63;;;13.60;61.10;;;;;;4255528;27;20092;-67
2021/11/25 05:32:43;;;;;;;23.10;14.52;;;13.60;61.10;;;;;;4255375;27;20071;-71
2021/11/25 05:34:46;;;;;;;23.40;14.13;;;13.60;61.10;;;;;;4255217;27;20047;-64
2021/11/25 05:36:49;;;;;;;20.15;14.07;;;13.60;61.10;;;;;;4255567;27;20453;-70
2021/11/25 05:38:52;;;;;;;19.45;13.15;;;13.60;61.10;;;;;;4255747;27;20070;-68
2021/11/25 05:40:57;;;;;;;19.55;13.35;;;13.60;61.10;;;;;;4255555;27;20054;-73
2021/11/25 05:43:00;;;;;;;20.25;13.32;;;13.60;61.10;;;;;;4255562;27;20240;-64
2021/11/25 05:45:05;;;;;;;23.38;14.43;;;13.60;61.10;;;;;;4254983;27;20043;-67
2021/11/25 05:47:09;;;;;;;23.58;15.07;;;13.60;61.10;;;;;;4244596;27;20047;-64
2021/11/25 05:49:12;;;;;;;20.98;14.02;;;13.60;61.20;;;;;;4255739;27;20051;-68
2021/11/25 05:51:17;;;;;;;22.73;14.30;;;13.60;61.10;;;;;;4255284;27;20050;-71
2021/11/25 05:53:20;;;;;;;22.75;14.50;;;13.60;61.10;;;;;;4255434;27;20085;-69
2021/11/25 05:55:27;;;;;;;25.20;15.45;;;13.60;61.10;;;;;;4255091;27;20047;-66
2021/11/25 05:57:31;;;;;;;22.85;15.20;;;13.50;61.10;;;;;;4244404;27;20058;-73
2021/11/25 05:59:34;;;;;;;22.95;15.18;;;13.60;61.10;;;;;;4255536;27;20243;-68
2021/11/25 06:01:37;;;;;;;25.15;15.45;;;13.50;61.10;;;;;;4255474;27;20035;-74
2021/11/25 06:03:40;;;;;;;25.98;16.30;;;13.60;61.10;;;;;;4237543;28;20066;-66
2021/11/25 06:05:44;;;;;;;23.83;15.82;;;13.50;61.10;;;;;;4255349;27;20043;-68
2021/11/25 06:07:47;;;;;;;25.73;16.23;;;13.50;61.10;;;;;;4243796;27;20078;-70
2021/11/25 06:09:50;;;;;;;26.73;15.80;;;13.60;61.10;;;;;;4255579;27;20150;-66
2021/11/25 06:11:54;;;;;;;25.15;15.65;;;13.50;61.10;;;;;;4255437;27;20339;-66
2021/11/25 06:13:58;;;;;;;25.20;16.40;;;13.60;61.10;;;;;;4255290;27;20055;-65
2021/11/25 06:16:01;;;;;;;23.17;15.07;;;13.50;61.10;;;;;;4255675;27;20321;-75
2021/11/25 06:18:04;;;;;;;24.58;16.15;;;13.50;61.10;;;;;;4255901;28;20347;-67
2021/11/25 06:20:12;;;;;;;25.05;16.25;;;13.50;61.10;;;;;;4255408;28;20069;-73
2021/11/25 06:22:15;;;;;;;23.70;15.60;;;13.50;61.10;;;;;;4254898;28;20112;-70
2021/11/25 06:24:18;;;;;;;30.20;17.48;;;13.50;61.10;;;;;;4255236;28;20063;-67
2021/11/25 06:26:21;;;;;;;25.58;16.02;;;13.50;61.30;;;;;;4255222;28;20066;-70
2021/11/25 06:28:24;;;;;;;29.92;18.27;;;13.50;61.10;;;;;;4254895;28;20397;-70
2021/11/25 06:30:29;;;;;;;26.52;16.58;;;13.50;61.00;;;;;;4254924;28;20340;-71
2021/11/25 06:32:32;;;;;;;26.35;17.27;;;13.50;61.10;;;;;;4255095;28;20091;-68
2021/11/25 06:34:35;;;;;;;26.77;17.55;;;13.50;61.00;;;;;;4254983;28;20055;-65
2021/11/25 06:36:39;;;;;;;27.65;18.33;;;13.40;61.00;;;;;;4255198;28;20062;-70
2021/11/25 06:38:42;;;;;;;29.77;17.83;;;13.50;61.10;;;;;;4254645;28;20062;-63
2021/11/25 06:40:46;;;;;;;27.90;18.05;;;13.40;61.00;;;;;;4255065;28;20343;-64
2021/11/25 06:42:49;;;;;;;28.35;17.73;;;13.40;61.00;;;;;;4254855;28;20332;-63
2021/11/25 06:44:52;;;;;;;32.22;18.85;;;13.40;61.00;;;;;;4255050;28;20051;-69
2021/11/25 06:46:56;;;;;;;30.13;18.40;;;13.40;61.00;;;;;;4254755;28;20070;-65
2021/11/25 06:48:59;;;;;;;27.95;18.63;;;13.50;61.10;;;;;;4255061;28;20059;-73
2021/11/25 06:51:02;;;;;;;26.38;17.20;;;13.40;61.00;;;;;;4254868;28;20273;-70
2021/11/25 06:53:07;;;;;;;29.92;18.70;;;13.40;61.00;;;;;;4254776;28;20107;-66
2021/11/25 06:55:10;;;;;;;31.38;19.00;;;13.40;61.00;;;;;;4255010;27;20058;-76
2021/11/25 06:57:13;;;;;;;33.50;18.85;;;13.40;61.00;;;;;;4257228;27;20051;-72
2021/11/25 06:59:17;;;;;;;27.27;17.13;;;13.40;61.00;;;;;;4258214;27;20063;-65
2021/11/25 07:01:20;;;;;;;32.63;19.15;;;13.40;61.10;;;;;;4258251;27;20051;-67
2021/11/25 07:03:24;;;;;;;31.33;19.40;;;13.40;61.00;;;;;;4257932;27;20059;-73
2021/11/25 07:05:28;;;;;;;27.83;17.63;;;13.40;61.00;;;;;;4258043;27;20066;-74
2021/11/25 07:07:32;;;;;;;32.63;18.65;;;13.40;61.60;;;;;;4257849;27;20445;-68
2021/11/25 07:09:35;;;;;;;31.17;18.45;;;13.40;61.10;;;;;;4257713;27;20054;-71
2021/11/25 07:11:38;;;;;;;29.02;18.55;;;13.40;61.00;;;;;;4257877;27;20051;-68
2021/11/25 07:13:41;;;;;;;29.30;18.65;;;13.40;61.00;;;;;;4257361;27;20055;-72
2021/11/25 07:15:45;;;;;;;29.80;18.35;;;13.40;61.10;;;;;;4257765;27;20058;-71
2021/11/25 07:17:48;;;;;;;28.52;18.20;;;13.40;61.10;;;;;;4257796;27;20047;-67
2021/11/25 07:19:52;;;;;;;32.80;18.58;;;13.40;61.10;;;;;;4257795;27;20051;-71
2021/11/25 07:21:55;;;;;;;32.03;19.75;;;13.40;61.10;;;;;;4257507;27;20077;-67
2021/11/25 07:23:58;;;;;;;34.22;19.65;;;13.40;61.00;;;;;;4257202;27;20062;-73
2021/11/25 07:26:03;;;;;;;32.35;19.48;;;13.40;61.10;;;;;;4257800;27;20051;-67
2021/11/25 07:28:06;;;;;;;31.05;19.52;;;13.40;61.10;;;;;;4257814;27;20066;-71
2021/11/25 07:30:11;;;;;;;31.67;20.13;;;13.40;61.10;;;;;;4257574;27;20112;-71
2021/11/25 07:32:14;;;;;;;32.60;19.38;;;13.40;61.00;;;;;;4257596;27;20051;-68
2021/11/25 07:34:17;;;;;;;29.63;18.63;;;13.30;61.10;;;;;;4257501;27;20051;-72
2021/11/25 07:36:22;;;;;;;28.65;18.42;;;13.40;61.10;;;;;;4257643;27;20067;-74
2021/11/25 07:38:26;;;;;;;31.88;18.92;;;13.30;61.00;;;;;;4257555;27;20051;-66
2021/11/25 07:40:29;;;;;;;30.38;18.58;;;13.40;61.20;;;;;;4254136;27;20058;-72
2021/11/25 07:42:32;;;;;;;31.15;20.27;;;13.30;61.00;;;;;;4257338;27;20071;-66
2021/11/25 07:44:35;;;;;;;31.60;19.05;;;13.30;61.00;;;;;;4257198;27;20047;-64
2021/11/25 07:46:38;;;;;;;31.63;20.42;;;13.30;61.20;;;;;;4257380;27;20059;-65
2021/11/25 07:48:41;;;;;;;28.90;19.17;;;13.30;61.00;;;;;;4257347;27;20080;-72
2021/11/25 07:50:45;;;;;;;29.45;18.98;;;13.30;60.90;;;;;;4257635;27;20051;-68
2021/11/25 07:52:50;;;;;;;31.25;20.02;;;13.30;61.00;;;;;;4258255;27;20055;-70
2021/11/25 07:54:53;;;;;;;32.72;19.70;;;13.30;61.00;;;;;;4257263;27;20047;-74
2021/11/25 07:57:00;;;;;;;33.65;20.15;;;13.30;61.00;;;;;;4257233;27;20268;-65
2021/11/25 07:59:04;;;;;;;30.08;19.30;;;13.30;61.10;;;;;;4256875;27;20051;-71
2021/11/25 08:01:07;;;;;;;31.70;19.50;;;13.30;61.00;;;;;;4257207;27;20047;-67
2021/11/25 08:03:10;;;;;;;31.60;18.77;;;13.30;61.00;;;;;;4257284;27;20051;-71
2021/11/25 08:05:14;;;;;;;33.88;20.63;;;13.30;61.00;;;;;;4256544;27;20047;-64
2021/11/25 08:07:17;;;;;;;31.27;19.60;;;13.30;61.00;;;;;;4256545;27;20051;-64
2021/11/25 08:09:21;;;;;;;32.47;19.95;;;13.30;61.00;;;;;;4256812;27;20047;-67
2021/11/25 08:11:24;;;;;;;31.10;19.80;;;13.30;61.10;;;;;;4256756;27;20051;-70
2021/11/25 08:13:28;;;;;;;32.10;20.23;;;13.30;61.00;;;;;;4257068;27;20050;-68
2021/11/25 08:15:32;;;;;;;31.83;19.92;;;13.30;61.10;;;;;;4256887;27;20070;-73
2021/11/25 08:17:35;;;;;;;32.65;19.88;;;13.30;61.10;;;;;;4257074;27;20051;-70
2021/11/25 08:19:39;;;;;;;35.35;21.38;;;13.30;61.00;;;;;;4256894;27;20128;-73
2021/11/25 08:21:42;;;;;;;32.67;20.38;;;13.30;61.00;;;;;;4255708;27;20082;-65
2021/11/25 08:23:45;;;;;;;37.47;20.35;;;13.30;61.00;;;;;;4256743;27;20085;-64
2021/11/25 08:25:50;;;;;;;35.03;21.25;;;13.30;61.10;;;;;;4256414;27;20047;-65
2021/11/25 08:27:57;;;;;;;34.05;20.80;;;13.30;61.00;;;;;;4256700;27;20358;-69
2021/11/25 08:30:00;;;;;;;32.53;19.77;;;13.30;61.10;;;;;;4256320;27;20063;-68
2021/11/25 08:32:04;;;;;;;35.35;20.95;;;13.30;61.80;;;;;;4255869;27;20092;-64
2021/11/25 08:34:07;;;;;;;31.33;20.17;;;13.30;61.10;;;;;;4256691;27;20380;-66
2021/11/25 08:36:11;;;;;;;33.53;20.92;;;13.30;61.00;;;;;;4256279;27;20047;-71
2021/11/25 08:38:15;;;;;;;33.15;20.40;;;13.30;61.10;;;;;;4257020;27;20337;-73
2021/11/25 08:40:18;;;;;;;33.92;21.92;;;13.30;61.10;;;;;;4256634;27;20229;-75
2021/11/25 08:42:22;;;;;;;35.70;21.42;;;13.30;61.10;;;;;;4256859;27;20076;-70
2021/11/25 08:44:26;;;;;;;38.40;21.67;;;13.30;61.10;;;;;;4257426;27;20066;-75
2021/11/25 08:46:29;;;;;;;34.70;20.92;;;13.30;61.10;;;;;;4257073;27;20347;-74
2021/11/25 08:48:32;;;;;;;33.65;21.27;;;13.30;61.10;;;;;;4256908;27;20058;-74
2021/11/25 08:50:36;;;;;;;38.88;22.27;;;13.30;61.10;;;;;;4256228;27;20059;-65
2021/11/25 08:52:39;;;;;;;36.28;22.60;;;13.30;61.00;;;;;;4255716;27;20051;-64
2021/11/25 08:54:43;;;;;;;35.80;20.95;;;13.30;61.10;;;;;;4239071;28;20089;-73
2021/11/25 08:56:46;;;;;;;32.30;20.20;;;13.30;61.80;;;;;;4247186;27;20484;-74
2021/11/25 08:58:50;;;;;;;36.42;24.08;;;13.30;61.60;;;;;;4256151;27;20326;-71
2021/11/25 09:00:53;;;;;;;34.20;21.30;;;13.30;62.10;;;;;;4256113;27;20150;-71
2021/11/25 09:02:56;;;;;;;33.40;22.02;;;13.30;61.40;;;;;;4256049;27;20058;-70
2021/11/25 09:05:00;;;;;;;38.60;21.20;;;13.30;61.60;;;;;;4238708;28;20066;-71
2021/11/25 09:07:04;;;;;;;38.42;23.17;;;13.30;61.70;;;;;;4246641;27;20047;-65
2021/11/25 09:09:07;;;;;;;40.50;24.98;;;13.30;61.70;;;;;;4252315;27;20078;-65
2021/11/25 09:11:10;;;;;;;41.20;26.27;;;13.30;61.70;;;;;;4235188;28;20233;-67
2021/11/25 09:13:15;;;;;;;36.75;24.05;;;13.30;61.90;;;;;;4253768;27;20128;-69
2021/11/25 09:15:21;;;;;;;53.05;31.50;;;13.30;61.80;;;;;;4256019;27;20288;-67
2021/11/25 09:17:25;;;;;;;54.42;31.77;;;13.30;63.60;;;;;;4255233;27;20059;-71
2021/11/25 09:19:51;;;;;;;52.33;30.70;;;13.30;63.60;;;;;;4256152;27;20066;-71
2021/11/25 09:21:55;;;;;;;56.45;32.63;;;13.30;63.10;;;;;;4256410;27;20058;-73
2021/11/25 09:23:59;;;;;;;60.28;33.40;;;13.30;62.90;;;;;;4255740;27;20060;-72
2021/11/25 09:26:03;;;;;;;54.97;28.80;;;13.30;62.80;;;;;;4255486;27;20039;-72
2021/11/25 09:28:06;;;;;;;53.58;29.95;;;13.30;62.90;;;;;;4257414;27;20367;-72
2021/11/25 09:30:10;;;;;;;50.13;29.65;;;13.30;62.60;;;;;;4256295;27;20335;-71
2021/11/25 09:32:14;;;;;;;56.97;31.67;;;13.30;62.50;;;;;;4253324;27;20256;-68
2021/11/25 09:34:17;;;;;;;57.53;31.00;;;13.40;62.70;;;;;;4253418;27;20339;-70
2021/11/25 09:36:22;;;;;;;59.53;32.60;;;13.40;62.80;;;;;;4255697;27;20067;-73
2021/11/25 09:38:27;;;;;;;49.15;30.42;;;13.40;62.90;;;;;;4253722;27;20047;-71
2021/11/25 09:40:30;;;;;;;87.97;32.58;;;13.40;62.90;;;;;;4255719;27;20074;-70
2021/11/25 09:42:33;;;;;;;72.97;31.17;;;13.40;62.50;;;;;;4254000;27;20066;-70
2021/11/25 09:44:37;;;;;;;57.17;30.75;;;13.40;62.80;;;;;;4250962;27;20096;-70
2021/11/25 09:46:40;;;;;;;59.03;31.65;;;13.40;62.70;;;;;;4255294;27;20341;-71
2021/11/25 09:48:47;;;;;;;60.38;31.33;;;13.50;61.80;;;;;;4254330;27;20047;-70
2021/11/25 09:50:54;;;;;;;61.75;31.00;;;13.40;62.60;;;;;;4255178;27;20051;-70
2021/11/25 09:53:01;;;;;;;63.38;32.60;;;13.50;62.00;;;;;;4254038;27;20047;-70
2021/11/25 09:55:05;;;;;;;55.15;30.80;;;13.50;61.80;;;;;;4254063;27;20059;-70
2021/11/25 09:57:09;;;;;;;95.85;33.15;;;13.50;61.80;;;;;;4254554;27;20058;-68
2021/11/25 09:59:12;;;;;;;62.30;30.33;;;13.50;61.90;;;;;;4255276;27;20119;-70
2021/11/25 10:01:18;;;;;;;73.70;31.45;;;13.60;62.60;;;;;;4253467;27;20074;-73
2021/11/25 10:03:22;;;;;;;86.22;31.20;;;13.60;62.60;;;;;;4255535;27;20275;-68
2021/11/25 10:05:27;;;;;;;77.60;32.28;;;13.60;62.60;;;;;;4254896;27;20051;-70
2021/11/25 10:07:33;;;;;;;89.55;32.60;;;13.60;62.40;;;;;;4243007;27;20059;-72
2021/11/25 10:09:39;;;;;;;74.78;31.48;;;13.60;62.10;;;;;;4254868;27;20047;-74
2021/11/25 10:11:43;;;;;;;;;;;13.60;62.10;;;;;;4234215;28;20158;-70
2021/11/25 10:13:55;;;;;;;74.80;32.38;;;13.70;62.00;;;;;;4253746;27;19915;-73
2021/11/25 10:15:58;;;;;;;59.78;30.25;;;13.70;62.60;;;;;;4246492;27;20047;-72
2021/11/25 10:18:04;;;;;;;62.55;31.40;;;13.70;62.40;;;;;;4254734;28;20071;-72
2021/11/25 10:20:08;;;;;;;66.00;32.15;;;13.70;62.30;;;;;;4253959;28;20327;-73
2021/11/25 10:22:13;;;;;;;62.97;32.70;;;13.80;62.10;;;;;;4254140;28;20067;-71
2021/11/25 10:24:30;;;;;;;66.25;33.90;;;13.80;62.00;;;;;;4251351;28;20059;-73
2021/11/25 10:26:37;;;;;;;64.75;31.48;;;13.80;61.70;;;;;;4229599;28;20087;-69
2021/11/25 10:28:44;;;;;;;65.72;33.88;;;13.80;62.00;;;;;;4254082;28;20348;-70
2021/11/25 10:30:50;;;;;;;63.55;33.58;;;13.80;62.00;;;;;;4256795;27;20322;-71
2021/11/25 10:32:57;;;;;;;62.10;33.28;;;13.80;62.20;;;;;;4250192;27;20487;-71
2021/11/25 10:35:21;;;;;;;60.53;33.85;;;13.80;62.40;;;;;;4247635;27;20114;-71
2021/11/25 10:37:38;;;;;;;66.18;34.55;;;13.80;62.30;;;;;;4257890;27;20051;-72
2021/11/25 10:42:02;;;;;;;60.15;34.15;;;13.80;62.30;;;;;;4258001;27;20043;-71
2021/11/25 10:44:27;;;;;;;64.45;32.53;;;13.90;62.50;;;;;;4258423;27;20093;-74
2021/11/25 10:46:42;;;;;;;60.50;35.40;;;13.90;62.70;;;;;;4252848;27;20343;-71